Yigo, Guam
Current Conditions -  °F | °C
As of 6:58 AM on Friday 19 Dec 2014 (Local Time) from PGUA Reporting Station
Few Clouds Few Clouds  
Wind Chill: 78°   Ceiling: Unl
Heat Index: 81°   Visibility: 10mi
Dew Point: 74°   Wind: 20mph
Humidity: 85%   Direction: 40°NE
Pressure: 29.95"   Gusts: 28mph
Location:  13.53°N, 144.89°E
Report Text: PGUA 182058Z AUTO 04017G24KT 10SM FEW017 26/23 A2995 RMK AO2 PK WND 06027/19 SLP132 T02580231 53010 $
Loading
Personal Weather Stations






























Interactive Weather Map New forecast layout! Learn more

10-Day Weather Forecast

Advertisements
Track Severe Weather on mobile